Time,TemperatureF,DewpointF,PressureIn,WindDirection,WindDirectionDegrees,WindSpeedMPH,WindSpeedGustMPH,Humidity,HourlyPrecipIn,Conditions,Clouds,dailyrainin,SolarRadiationWatts/m^2,SoftwareType,DateUTC
2013-06-06 00:03:00,67.0,66.0,-100.00,NNW,346,0.0,3.0,96,0.00,,,0.23,0.000000,,2013-06-06 04:03:00,
2013-06-06 00:33:00,65.0,64.0,-100.00,SE,145,0.0,0.0,97,0.00,,,0.23,0.000000,,2013-06-06 04:33:00,
2013-06-06 00:42:00,65.0,64.0,-100.00,SE,145,0.0,0.0,97,0.00,,,0.23,0.000000,,2013-06-06 04:42:00,
2013-06-06 00:53:00,65.0,64.0,-100.00,SE,145,0.0,0.0,97,0.00,,,0.23,0.000000,,2013-06-06 04:53:00,
2013-06-06 01:02:00,65.0,64.0,-100.00,SE,145,0.0,0.0,97,0.00,,,0.23,0.000000,,2013-06-06 05:02:00,
2013-06-06 01:32:00,65.0,64.0,-100.00,East,92,0.0,3.0,97,0.00,,,0.23,0.000000,,2013-06-06 05:32:00,
2013-06-06 01:42:00,65.0,64.0,-100.00,East,92,0.0,3.0,97,0.00,,,0.23,0.000000,,2013-06-06 05:42:00,
2013-06-06 01:52:00,65.0,64.0,-100.00,East,92,0.0,3.0,97,0.00,,,0.23,0.000000,,2013-06-06 05:52:00,
2013-06-06 02:02:00,65.0,64.0,-100.00,East,92,0.0,3.0,97,0.00,,,0.23,0.000000,,2013-06-06 06:02:00,
2013-06-06 02:33:00,64.0,63.0,-100.00,SSE,166,0.0,0.0,98,0.00,,,0.23,0.000000,,2013-06-06 06:33:00,
2013-06-06 02:42:00,64.0,63.0,-100.00,SSE,166,0.0,0.0,98,0.00,,,0.23,0.000000,,2013-06-06 06:42:00,
2013-06-06 02:52:00,64.0,63.0,-100.00,SSE,166,0.0,0.0,98,0.00,,,0.23,0.000000,,2013-06-06 06:52:00,
2013-06-06 03:02:00,64.0,63.0,-100.00,SSE,166,0.0,0.0,98,0.00,,,0.23,0.000000,,2013-06-06 07:02:00,
2013-06-06 03:33:00,64.0,63.0,-100.00,East,82,0.0,0.0,98,0.00,,,0.23,0.000000,,2013-06-06 07:33:00,
2013-06-06 03:42:00,64.0,63.0,-100.00,East,82,0.0,0.0,98,0.00,,,0.23,0.000000,,2013-06-06 07:42:00,
2013-06-06 03:52:00,64.0,63.0,-100.00,East,82,0.0,0.0,98,0.00,,,0.23,0.000000,,2013-06-06 07:52:00,
2013-06-06 04:02:00,64.0,63.0,-100.00,East,82,0.0,0.0,98,0.00,,,0.23,0.000000,,2013-06-06 08:02:00,
2013-06-06 04:32:00,63.0,62.0,-100.00,SE,127,0.0,0.0,98,0.00,,,0.23,0.000000,,2013-06-06 08:32:00,
2013-06-06 04:42:00,63.0,62.0,-100.00,SE,127,0.0,0.0,98,0.00,,,0.23,0.000000,,2013-06-06 08:42:00,
2013-06-06 04:52:00,63.0,62.0,-100.00,SE,127,0.0,0.0,98,0.00,,,0.23,0.000000,,2013-06-06 08:52:00,
2013-06-06 05:02:00,63.0,62.0,-100.00,SE,127,0.0,0.0,98,0.00,,,0.23,0.000000,,2013-06-06 09:02:00,
2013-06-06 05:33:00,63.0,62.0,-100.00,SSE,153,0.0,0.0,98,0.00,,,0.23,0.000000,,2013-06-06 09:33:00,
2013-06-06 05:43:00,63.0,62.0,-100.00,SSE,153,0.0,0.0,98,0.00,,,0.23,0.000000,,2013-06-06 09:43:00,
2013-06-06 05:53:00,63.0,62.0,-100.00,SSE,153,0.0,0.0,98,0.00,,,0.23,0.000000,,2013-06-06 09:53:00,
2013-06-06 06:03:00,63.0,62.0,-100.00,SSE,153,0.0,0.0,98,0.00,,,0.23,0.000000,,2013-06-06 10:03:00,
2013-06-06 06:33:00,63.0,62.0,-100.00,SSE,162,0.0,0.0,98,0.00,,,0.23,0.000000,,2013-06-06 10:33:00,
2013-06-06 06:42:00,63.0,62.0,-100.00,SSE,162,0.0,0.0,98,0.00,,,0.23,0.000000,,2013-06-06 10:42:00,
2013-06-06 06:53:00,63.0,62.0,-100.00,SSE,162,0.0,0.0,98,0.00,,,0.23,0.000000,,2013-06-06 10:53:00,
2013-06-06 07:02:00,63.0,62.0,-100.00,SSE,162,0.0,0.0,98,0.00,,,0.23,0.000000,,2013-06-06 11:02:00,
2013-06-06 07:32:00,63.0,62.0,-100.00,ESE,110,0.0,0.0,98,0.00,,,0.23,6.000000,,2013-06-06 11:32:00,
2013-06-06 07:42:00,63.0,62.0,-100.00,ESE,110,0.0,0.0,98,0.00,,,0.23,6.000000,,2013-06-06 11:42:00,
2013-06-06 07:52:00,63.0,62.0,-100.00,ESE,110,0.0,0.0,98,0.00,,,0.23,6.000000,,2013-06-06 11:52:00,
2013-06-06 08:03:00,63.0,62.0,-100.00,ESE,110,0.0,0.0,98,0.00,,,0.23,6.000000,,2013-06-06 12:03:00,
2013-06-06 08:33:00,65.0,64.0,-100.00,WSW,253,0.0,0.0,98,0.00,,,0.23,40.000000,,2013-06-06 12:33:00,
2013-06-06 08:43:00,65.0,64.0,-100.00,WSW,253,0.0,0.0,98,0.00,,,0.23,40.000000,,2013-06-06 12:43:00,
2013-06-06 08:53:00,65.0,64.0,-100.00,WSW,253,0.0,0.0,98,0.00,,,0.23,40.000000,,2013-06-06 12:53:00,
2013-06-06 09:03:00,65.0,64.0,-100.00,WSW,253,0.0,0.0,98,0.00,,,0.23,40.000000,,2013-06-06 13:03:00,
2013-06-06 09:33:00,68.0,67.0,-100.00,SW,219,0.0,4.0,97,0.00,,,0.23,123.000000,,2013-06-06 13:33:00,
2013-06-06 09:43:00,68.0,67.0,-100.00,SW,219,0.0,4.0,97,0.00,,,0.23,123.000000,,2013-06-06 13:43:00,
2013-06-06 09:53:00,68.0,67.0,-100.00,SW,219,0.0,4.0,97,0.00,,,0.23,123.000000,,2013-06-06 13:53:00,
2013-06-06 10:03:00,68.0,67.0,-100.00,SW,219,0.0,4.0,97,0.00,,,0.23,123.000000,,2013-06-06 14:03:00,
2013-06-06 10:33:00,72.0,68.0,-100.00,SSW,197,5.0,9.0,86,0.00,,,0.23,288.000000,,2013-06-06 14:33:00,
2013-06-06 10:43:00,72.0,68.0,-100.00,SSW,197,5.0,9.0,86,0.00,,,0.23,288.000000,,2013-06-06 14:43:00,
2013-06-06 10:53:00,72.0,68.0,-100.00,SSW,197,5.0,9.0,86,0.00,,,0.23,288.000000,,2013-06-06 14:53:00,
2013-06-06 11:03:00,72.0,68.0,-100.00,SSW,197,5.0,9.0,86,0.00,,,0.23,288.000000,,2013-06-06 15:03:00,
2013-06-06 12:34:00,76.0,68.0,-100.00,South,190,3.0,7.0,77,-99.99,,,0.23,359.000000,,2013-06-06 16:34:00,
2013-06-06 12:44:00,76.0,68.0,-100.00,South,190,3.0,7.0,77,-99.99,,,0.23,359.000000,,2013-06-06 16:44:00,
2013-06-06 12:53:00,76.0,68.0,-100.00,South,190,3.0,7.0,77,-99.99,,,0.23,359.000000,,2013-06-06 16:53:00,
2013-06-06 13:03:00,76.0,68.0,-100.00,South,190,3.0,7.0,77,-99.99,,,0.23,359.000000,,2013-06-06 17:03:00,
2013-06-06 13:33:00,80.0,68.0,-100.00,SSE,167,4.0,14.0,68,0.00,,,0.23,909.000000,,2013-06-06 17:33:00,
2013-06-06 13:43:00,80.0,68.0,-100.00,SSE,167,4.0,14.0,68,0.00,,,0.23,909.000000,,2013-06-06 17:43:00,
2013-06-06 13:53:00,80.0,68.0,-100.00,SSE,167,4.0,14.0,68,0.00,,,0.23,909.000000,,2013-06-06 17:53:00,
2013-06-06 14:03:00,80.0,68.0,-100.00,SSE,167,4.0,14.0,68,0.00,,,0.23,909.000000,,2013-06-06 18:03:00,
2013-06-06 14:33:00,81.0,69.0,-100.00,SSW,206,5.0,14.0,67,0.00,,,0.23,651.000000,,2013-06-06 18:33:00,
2013-06-06 14:43:00,81.0,69.0,-100.00,SSW,206,5.0,14.0,67,0.00,,,0.23,651.000000,,2013-06-06 18:43:00,
2013-06-06 14:53:00,81.0,69.0,-100.00,SSW,206,5.0,14.0,67,0.00,,,0.23,651.000000,,2013-06-06 18:53:00,
2013-06-06 15:03:00,81.0,69.0,-100.00,SSW,206,5.0,14.0,67,0.00,,,0.23,651.000000,,2013-06-06 19:03:00,
2013-06-06 15:34:00,82.0,69.0,-100.00,SSW,203,5.0,12.0,64,0.00,,,0.21,715.000000,,2013-06-06 19:34:00,
2013-06-06 15:43:00,82.0,69.0,-100.00,SSW,203,5.0,12.0,64,0.00,,,0.21,715.000000,,2013-06-06 19:43:00,
2013-06-06 15:53:00,82.0,69.0,-100.00,SSW,203,5.0,12.0,64,0.00,,,0.21,715.000000,,2013-06-06 19:53:00,
2013-06-06 16:03:00,82.0,69.0,-100.00,SSW,203,5.0,12.0,64,0.00,,,0.21,715.000000,,2013-06-06 20:03:00,
2013-06-06 16:33:00,81.0,67.0,-100.00,South,182,6.0,11.0,62,0.00,,,0.14,589.000000,,2013-06-06 20:33:00,
2013-06-06 16:43:00,81.0,67.0,-100.00,South,182,6.0,11.0,62,0.00,,,0.14,589.000000,,2013-06-06 20:43:00,
2013-06-06 16:53:00,81.0,67.0,-100.00,South,182,6.0,11.0,62,0.00,,,0.14,589.000000,,2013-06-06 20:53:00,
2013-06-06 17:03:00,81.0,67.0,-100.00,South,182,6.0,11.0,62,0.00,,,0.14,589.000000,,2013-06-06 21:03:00,
2013-06-06 17:33:00,82.0,67.0,-100.00,SSW,201,7.0,10.0,61,0.00,,,0.04,445.000000,,2013-06-06 21:33:00,
2013-06-06 17:44:00,82.0,67.0,-100.00,SSW,201,7.0,10.0,61,0.00,,,0.04,445.000000,,2013-06-06 21:44:00,
2013-06-06 17:53:00,82.0,67.0,-100.00,SSW,201,7.0,10.0,61,0.00,,,0.04,445.000000,,2013-06-06 21:53:00,
2013-06-06 18:03:00,82.0,67.0,-100.00,SSW,201,7.0,10.0,61,0.00,,,0.04,445.000000,,2013-06-06 22:03:00,
2013-06-06 18:33:00,82.0,68.0,-100.00,SSW,209,5.0,11.0,63,0.00,,,0.01,322.000000,,2013-06-06 22:33:00,
2013-06-06 18:43:00,82.0,68.0,-100.00,SSW,209,5.0,11.0,63,0.00,,,0.01,322.000000,,2013-06-06 22:43:00,
2013-06-06 18:53:00,82.0,68.0,-100.00,SSW,209,5.0,11.0,63,0.00,,,0.01,322.000000,,2013-06-06 22:53:00,
2013-06-06 19:03:00,82.0,68.0,-100.00,SSW,209,5.0,11.0,63,0.00,,,0.01,322.000000,,2013-06-06 23:03:00,
2013-06-06 19:33:00,80.0,69.0,-100.00,South,180,0.0,9.0,69,0.00,,,0.01,163.000000,,2013-06-06 23:33:00,
2013-06-06 19:43:00,80.0,69.0,-100.00,South,180,0.0,9.0,69,0.00,,,0.01,163.000000,,2013-06-06 23:43:00,
2013-06-06 19:52:00,80.0,69.0,-100.00,South,180,0.0,9.0,69,0.00,,,0.01,163.000000,,2013-06-06 23:52:00,
2013-06-06 20:02:00,80.0,69.0,-100.00,South,180,0.0,9.0,69,0.00,,,0.01,163.000000,,2013-06-07 00:02:00,
2013-06-06 20:32:00,77.0,69.0,-100.00,WNW,289,3.0,8.0,77,0.00,,,0.01,63.000000,,2013-06-07 00:32:00,
2013-06-06 20:43:00,77.0,69.0,-100.00,WNW,289,3.0,8.0,77,0.00,,,0.01,63.000000,,2013-06-07 00:43:00,
2013-06-06 20:52:00,77.0,69.0,-100.00,WNW,289,3.0,8.0,77,0.00,,,0.01,63.000000,,2013-06-07 00:52:00,
2013-06-06 21:03:00,77.0,69.0,-100.00,WNW,289,3.0,8.0,77,0.00,,,0.01,63.000000,,2013-06-07 01:03:00,
2013-06-06 21:33:00,73.0,69.0,-100.00,SW,222,3.0,8.0,87,0.12,,,0.13,5.000000,,2013-06-07 01:33:00,
2013-06-06 21:42:00,73.0,69.0,-100.00,SW,222,3.0,8.0,87,0.12,,,0.13,5.000000,,2013-06-07 01:42:00,
2013-06-06 21:53:00,73.0,69.0,-100.00,SW,222,3.0,8.0,87,0.12,,,0.13,5.000000,,2013-06-07 01:53:00,
2013-06-06 22:02:00,73.0,69.0,-100.00,SW,222,3.0,8.0,87,0.12,,,0.13,5.000000,,2013-06-07 02:02:00,
2013-06-06 22:32:00,70.0,69.0,-100.00,ENE,66,0.0,8.0,96,0.49,,,0.61,0.000000,,2013-06-07 02:32:00,
2013-06-06 22:42:00,70.0,69.0,-100.00,ENE,66,0.0,8.0,96,0.49,,,0.61,0.000000,,2013-06-07 02:42:00,
2013-06-06 22:52:00,70.0,69.0,-100.00,ENE,66,0.0,8.0,96,0.49,,,0.61,0.000000,,2013-06-07 02:52:00,
2013-06-06 23:02:00,70.0,69.0,-100.00,ENE,66,0.0,8.0,96,0.49,,,0.61,0.000000,,2013-06-07 03:02:00,
2013-06-06 23:33:00,70.0,69.0,-100.00,East,94,0.0,0.0,96,0.00,,,0.61,0.000000,,2013-06-07 03:33:00,
2013-06-06 23:44:00,70.0,69.0,-100.00,East,94,0.0,0.0,96,0.00,,,0.61,0.000000,,2013-06-07 03:44:00,
2013-06-06 23:53:00,70.0,69.0,-100.00,East,94,0.0,0.0,96,0.00,,,0.61,0.000000,,2013-06-07 03:53:00,